Time;durP1;ratioP1;P1;durP2;ratioP2;P2;SDS_P1;SDS_P2;PMS_P1;PMS_P2;Temp;Humidity;BMP_temperature;BMP_pressure;BME280_temperature;BME280_humidity;BME280_pressure;Samples;Min_cycle;Max_cycle;Signal;HPM_P1;HPM_P2
2023/04/11 00:02:46;;;;;;;;;15.00;14.00;;;;;11.16;64.60;98928.44;6023926;29;96197;-60
2023/04/11 00:05:51;;;;;;;;;19.00;18.00;;;;;11.16;64.93;98930.31;6010073;29;96664;-60
2023/04/11 00:08:55;;;;;;;;;16.00;16.00;;;;;11.21;65.10;98923.19;6025548;29;96671;-60
2023/04/11 00:12:00;;;;;;;;;17.00;16.00;;;;;11.27;65.09;98930.41;6008413;29;98680;-60
2023/04/11 00:15:05;;;;;;;;;13.60;12.00;;;;;11.32;64.83;98923.50;6002963;29;96547;-60
2023/04/11 00:18:11;;;;;;;;;19.00;18.00;;;;;11.30;64.97;98918.31;6002403;29;96250;-60
2023/04/11 00:21:16;;;;;;;;;16.00;15.33;;;;;11.26;64.43;98907.16;5987294;29;98342;-60
2023/04/11 00:24:19;;;;;;;;;15.40;13.80;;;;;11.34;64.62;98916.00;6003744;29;96193;-60
2023/04/11 00:27:23;;;;;;;;;16.00;14.00;;;;;11.34;64.28;98914.09;6003783;29;96351;-60
2023/04/11 00:30:26;;;;;;;;;11.00;11.00;;;;;11.41;64.24;98911.34;6003644;29;96294;-60
2023/04/11 00:33:31;;;;;;;;;15.00;14.20;;;;;11.38;63.82;98915.31;6001883;29;98340;-60
2023/04/11 00:36:35;;;;;;;;;17.00;16.00;;;;;11.34;63.22;98910.63;6027303;29;96320;-61
2023/04/11 00:39:39;;;;;;;;;17.75;16.50;;;;;11.27;63.10;98930.41;6007322;29;96744;-60
2023/04/11 00:42:43;;;;;;;;;13.00;13.00;;;;;11.26;63.42;98915.25;6002431;29;96382;-61
2023/04/11 00:45:47;;;;;;;;;15.00;13.80;;;;;11.23;62.98;98912.19;6001878;29;96828;-60
2023/04/11 00:48:51;;;;;;;;;17.50;16.00;;;;;11.18;62.90;98903.94;6017566;29;96755;-60
2023/04/11 00:51:56;;;;;;;;;15.40;13.40;;;;;11.14;62.94;98900.03;6025440;29;96279;-60
2023/04/11 00:55:02;;;;;;;;;15.00;13.00;;;;;11.13;62.64;98884.91;6023956;29;96105;-60
2023/04/11 00:58:07;;;;;;;;;18.00;16.40;;;;;11.08;62.52;98879.34;6007270;29;99278;-60
2023/04/11 01:01:10;;;;;;;;;16.00;14.40;;;;;11.06;62.45;98874.16;6025663;29;96265;-60
2023/04/11 01:04:16;;;;;;;;;16.75;14.50;;;;;10.96;62.10;98870.34;6027961;29;96286;-60
2023/04/11 01:07:23;;;;;;;;;15.00;14.00;;;;;10.86;61.83;98868.16;6010496;29;98411;-60
2023/04/11 01:10:30;;;;;;;;;15.60;14.60;;;;;10.81;62.11;98873.41;6012461;29;96804;-60
2023/04/11 01:13:34;;;;;;;;;15.00;15.00;;;;;10.75;61.76;98866.22;6016625;29;97613;-60
2023/04/11 01:16:38;;;;;;;;;13.00;13.00;;;;;10.76;62.35;98846.28;6016621;29;97721;-60
2023/04/11 01:19:42;;;;;;;;;14.40;13.20;;;;;10.69;62.28;98837.47;5998348;29;96494;-60
2023/04/11 01:22:49;;;;;;;;;12.25;12.00;;;;;10.77;62.48;98837.16;6026682;29;96405;-60
2023/04/11 01:25:53;;;;;;;;;14.00;14.00;;;;;10.89;62.27;98848.03;6012672;29;98703;-60
2023/04/11 01:28:57;;;;;;;;;13.00;12.60;;;;;10.75;61.50;98825.78;6010651;29;98517;-60
2023/04/11 01:32:01;;;;;;;;;11.00;10.00;;;;;10.89;62.19;98843.47;6002353;29;96927;-60
2023/04/11 01:35:05;;;;;;;;;11.25;10.00;;;;;10.94;62.03;98851.72;6007513;29;96731;-60
2023/04/11 01:38:09;;;;;;;;;12.25;12.00;;;;;10.91;61.49;98835.97;6003700;29;96936;-61
2023/04/11 01:41:16;;;;;;;;;13.20;12.00;;;;;10.91;61.12;98830.56;6003875;29;96418;-60
2023/04/11 01:44:20;;;;;;;;;11.00;11.00;;;;;10.86;60.84;98831.25;5993535;29;96259;-60
2023/04/11 01:47:23;;;;;;;;;14.60;13.20;;;;;10.81;60.89;98823.00;6006544;29;96879;-60
2023/04/11 01:50:27;;;;;;;;;11.60;11.60;;;;;10.77;60.38;98820.97;5992399;29;96562;-60
2023/04/11 01:53:30;;;;;;;;;12.40;11.40;;;;;10.74;60.63;98816.88;5988694;29;96251;-60
2023/04/11 01:56:35;;;;;;;;;11.25;10.25;;;;;10.74;60.69;98821.44;6026906;29;96449;-60
2023/04/11 01:59:38;;;;;;;;;13.00;13.00;;;;;10.68;60.41;98814.22;6012524;29;97490;-60
2023/04/11 02:02:42;;;;;;;;;10.00;9.40;;;;;10.54;60.40;98802.78;6013389;29;96568;-60
2023/04/11 02:05:45;;;;;;;;;12.20;11.20;;;;;10.56;60.89;98810.63;6006488;29;96325;-60
2023/04/11 02:08:48;;;;;;;;;13.00;12.00;;;;;10.52;60.68;98807.56;6000237;29;96236;-60
2023/04/11 02:11:53;;;;;;;;;14.00;13.50;;;;;10.43;61.14;98798.94;6005800;29;96630;-60
2023/04/11 02:14:56;;;;;;;;;17.25;14.25;;;;;10.41;60.39;98794.81;6003993;29;97069;-60
2023/04/11 02:18:00;;;;;;;;;13.75;13.75;;;;;10.30;60.37;98793.69;6000782;29;96881;-60
2023/04/11 02:21:04;;;;;;;;;15.00;14.60;;;;;10.22;60.09;98796.66;6025304;29;96346;-60
2023/04/11 02:24:08;;;;;;;;;16.00;14.00;;;;;10.06;59.60;98791.81;5990389;29;96648;-60
2023/04/11 02:27:12;;;;;;;;;13.00;12.80;;;;;9.90;59.52;98790.50;6005426;29;96938;-60
2023/04/11 02:30:16;;;;;;;;;14.50;14.00;;;;;9.83;59.91;98787.00;6014374;29;96659;-60
2023/04/11 02:33:19;;;;;;;;;17.20;17.00;;;;;9.79;60.09;98782.28;6010554;29;96245;-61
2023/04/11 02:36:23;;;;;;;;;16.20;14.00;;;;;9.77;60.51;98785.22;5997117;29;96457;-60
2023/04/11 02:39:26;;;;;;;;;17.00;16.00;;;;;9.74;60.53;98779.44;6005792;29;96197;-60
2023/04/11 02:42:32;;;;;;;;;14.00;13.20;;;;;9.63;60.85;98762.09;6011222;29;96288;-61
2023/04/11 02:45:35;;;;;;;;;16.40;15.60;;;;;9.70;60.72;98770.16;6019725;29;96255;-60
2023/04/11 02:48:39;;;;;;;;;15.40;14.40;;;;;9.63;60.18;98767.50;6003489;29;96282;-60
2023/04/11 02:51:42;;;;;;;;;17.80;16.60;;;;;9.58;60.08;98764.63;6006119;29;96444;-59
2023/04/11 02:54:47;;;;;;;;;14.00;14.00;;;;;9.52;59.46;98770.91;6009358;29;98445;-60
2023/04/11 02:57:52;;;;;;;;;16.00;15.00;;;;;9.41;59.37;98769.72;6025955;29;96198;-61
2023/04/11 03:00:56;;;;;;;;;19.00;18.00;;;;;9.26;58.76;98757.63;5984777;29;98541;-61
2023/04/11 03:03:59;;;;;;;;;15.75;15.00;;;;;9.16;59.00;98754.56;6009643;29;96231;-61
2023/04/11 03:07:12;;;;;;;;;16.75;15.75;;;;;9.05;59.23;98754.22;5997415;29;98434;-60
2023/04/11 03:10:16;;;;;;;;;18.00;17.00;;;;;8.98;59.09;98757.97;6011301;29;96437;-60
2023/04/11 03:13:21;;;;;;;;;16.00;15.60;;;;;8.91;59.34;98751.81;5995063;29;98998;-60
2023/04/11 03:16:26;;;;;;;;;15.60;15.00;;;;;8.84;59.30;98759.91;6011776;29;96539;-59
2023/04/11 03:19:30;;;;;;;;;16.00;14.50;;;;;8.81;59.23;98756.81;6013744;29;96907;-59
2023/04/11 03:22:35;;;;;;;;;16.60;15.00;;;;;8.74;59.59;98750.66;6019845;29;96505;-60
2023/04/11 03:25:39;;;;;;;;;17.40;16.00;;;;;8.68;59.70;98742.41;5990163;29;96627;-59
2023/04/11 03:28:45;;;;;;;;;20.00;18.25;;;;;8.58;59.54;98749.25;6003737;29;96555;-59
2023/04/11 03:31:52;;;;;;;;;19.40;18.40;;;;;8.51;59.75;98740.38;5990059;29;96657;-59
2023/04/11 03:34:55;;;;;;;;;14.00;12.00;;;;;8.53;60.02;98743.69;6035896;29;96391;-60
2023/04/11 03:37:59;;;;;;;;;14.00;13.20;;;;;8.49;59.87;98745.16;6019521;29;96256;-59
2023/04/11 03:41:02;;;;;;;;;13.80;12.80;;;;;8.38;59.81;98721.63;6004490;29;96348;-60
2023/04/11 03:44:07;;;;;;;;;20.00;19.00;;;;;8.49;60.17;98742.47;6023370;29;98564;-59
2023/04/11 03:47:11;;;;;;;;;20.00;18.00;;;;;8.51;60.01;98737.69;6011641;29;99032;-59
2023/04/11 03:50:18;;;;;;;;;17.00;16.80;;;;;8.48;60.31;98727.38;6017677;29;97111;-59
2023/04/11 03:53:26;;;;;;;;;15.75;14.75;;;;;8.44;60.11;98718.09;6018949;29;96913;-59
2023/04/11 03:56:34;;;;;;;;;21.00;20.00;;;;;8.28;60.05;98695.19;6015501;29;96811;-60
2023/04/11 03:59:40;;;;;;;;;19.20;17.00;;;;;8.40;60.05;98716.88;6023245;29;96342;-59
2023/04/11 04:02:47;;;;;;;;;14.25;14.00;;;;;8.38;59.94;98710.88;6032289;29;96459;-59
2023/04/11 04:05:51;;;;;;;;;16.50;16.00;;;;;8.32;59.96;98709.03;6035083;29;96534;-60
2023/04/11 04:08:58;;;;;;;;;18.00;16.00;;;;;8.24;60.42;98713.59;6023474;29;97583;-60
2023/04/11 04:12:06;;;;;;;;;17.75;16.75;;;;;8.24;60.79;98718.97;6011728;29;96476;-59
2023/04/11 04:15:30;;;;;;;;;18.80;16.80;;;;;8.23;60.97;98711.94;6003488;29;96787;-59
2023/04/11 04:18:35;;;;;;;;;19.60;19.00;;;;;8.22;61.15;98720.19;6027945;29;96279;-60
2023/04/11 04:21:38;;;;;;;;;19.00;17.60;;;;;8.26;60.86;98735.66;6029300;29;97165;-60
2023/04/11 04:24:44;;;;;;;;;18.80;16.80;;;;;8.24;60.97;98713.59;6010192;29;96823;-59
2023/04/11 04:28:01;;;;;;;;;19.40;18.40;;;;;8.50;61.24;98728.81;5990215;29;96877;-61
2023/04/11 04:31:18;;;;;;;;;18.00;17.40;;;;;8.61;61.55;98732.69;6008059;29;97030;-60
2023/04/11 04:34:23;;;;;;;;;20.00;18.00;;;;;8.73;61.15;98722.94;6007300;29;97083;-60
2023/04/11 04:37:27;;;;;;;;;18.50;17.00;;;;;8.84;61.08;98719.59;6002752;29;99330;-59
2023/04/11 04:40:40;;;;;;;;;19.25;18.25;;;;;8.88;61.29;98725.34;5995275;29;96195;-59
2023/04/11 04:43:44;;;;;;;;;19.20;18.80;;;;;9.02;60.98;98724.25;6006753;29;98516;-60
2023/04/11 04:46:54;;;;;;;;;18.80;16.60;;;;;9.11;61.22;98723.78;5991526;29;96781;-60
2023/04/11 04:50:00;;;;;;;;;17.00;16.20;;;;;9.16;61.19;98715.06;6022144;29;96478;-59
2023/04/11 04:53:06;;;;;;;;;21.75;21.75;;;;;9.27;61.31;98708.97;6031599;29;96269;-59
2023/04/11 04:56:11;;;;;;;;;21.00;20.00;;;;;9.23;61.54;98675.50;6009741;29;96223;-60
2023/04/11 04:59:20;;;;;;;;;21.00;20.00;;;;;9.54;61.43;98699.66;6003098;29;98468;-58
2023/04/11 05:02:31;;;;;;;;;20.60;18.60;;;;;9.64;61.76;98690.25;5991324;29;96218;-59
2023/04/11 05:05:35;;;;;;;;;21.00;20.00;;;;;9.76;61.65;98680.44;6009287;29;96868;-60
2023/04/11 05:08:40;;;;;;;;;20.40;20.00;;;;;9.96;61.94;98676.50;6006230;29;96754;-59
2023/04/11 05:11:45;;;;;;;;;18.50;18.00;;;;;10.10;62.05;98668.28;6006640;29;96985;-59
2023/04/11 05:14:49;;;;;;;;;19.00;17.00;;;;;10.25;62.18;98668.78;6012721;29;96349;-59
2023/04/11 05:17:56;;;;;;;;;18.00;16.60;;;;;10.46;62.28;98660.19;5984950;29;98605;-59
2023/04/11 05:21:01;;;;;;;;;16.00;16.00;;;;;10.69;61.70;98659.50;5988514;29;98391;-59
2023/04/11 05:24:10;;;;;;;;;16.00;14.00;;;;;10.81;61.40;98654.97;5989314;29;96888;-59
2023/04/11 05:27:14;;;;;;;;;17.40;16.00;;;;;10.94;61.14;98660.19;5989955;29;96313;-59
2023/04/11 05:30:18;;;;;;;;;16.00;15.20;;;;;11.06;61.38;98663.75;6019843;29;96253;-59
2023/04/11 05:33:25;;;;;;;;;17.20;16.20;;;;;11.22;61.53;98664.97;6009926;29;96586;-59
2023/04/11 05:36:30;;;;;;;;;15.80;14.20;;;;;11.16;61.12;98653.22;5999066;29;96211;-59
2023/04/11 05:39:33;;;;;;;;;18.00;16.50;;;;;11.43;61.08;98658.22;5962024;29;98366;-59
2023/04/11 05:42:37;;;;;;;;;19.60;19.00;;;;;11.61;61.11;98642.72;6002341;29;97363;-59
2023/04/11 05:45:40;;;;;;;;;18.40;16.80;;;;;11.67;59.62;98635.56;6013638;29;97141;-59
2023/04/11 05:48:45;;;;;;;;;17.80;17.00;;;;;11.80;60.14;98635.34;5996121;29;96782;-59
2023/04/11 05:51:48;;;;;;;;;14.20;14.20;;;;;11.76;59.45;98630.66;5974238;29;99179;-59
2023/04/11 05:54:52;;;;;;;;;21.00;19.00;;;;;11.80;59.24;98635.34;5997814;29;96289;-60
2023/04/11 05:57:55;;;;;;;;;23.00;20.60;;;;;11.95;58.82;98627.59;6000339;29;96401;-58
2023/04/11 06:00:59;;;;;;;;;16.40;15.40;;;;;12.10;58.42;98622.53;6011331;29;96559;-59
2023/04/11 06:04:04;;;;;;;;;19.00;19.00;;;;;12.30;58.05;98624.84;6012003;29;96427;-59
2023/04/11 06:07:08;;;;;;;;;17.25;16.00;;;;;12.47;57.19;98614.91;6012591;29;96439;-59
2023/04/11 06:10:11;;;;;;;;;22.20;20.00;;;;;12.59;56.49;98613.00;6011603;29;96300;-59
2023/04/11 06:13:15;;;;;;;;;19.00;18.00;;;;;12.76;56.41;98606.78;5998560;29;96858;-59
2023/04/11 06:16:18;;;;;;;;;21.20;19.60;;;;;12.96;55.48;98602.56;6011410;29;96476;-59
2023/04/11 06:19:23;;;;;;;;;23.00;21.00;;;;;13.08;54.96;98602.50;6009089;29;96409;-59
2023/04/11 06:22:26;;;;;;;;;21.60;20.00;;;;;13.19;54.53;98604.38;5993230;29;96396;-59
2023/04/11 06:25:30;;;;;;;;;21.50;19.00;;;;;13.29;53.41;98607.22;6009883;29;96507;-59
2023/04/11 06:28:33;;;;;;;;;24.00;22.00;;;;;13.47;53.40;98591.78;6009748;29;96687;-59
2023/04/11 06:31:36;;;;;;;;;21.67;19.67;;;;;13.72;53.69;98593.00;6010450;29;96345;-59
2023/04/11 06:34:41;;;;;;;;;23.20;21.00;;;;;13.99;53.35;98584.97;6010446;29;96071;-59
2023/04/11 06:37:45;;;;;;;;;24.00;21.20;;;;;14.16;53.52;98583.03;5972161;29;97449;-59
2023/04/11 06:40:50;;;;;;;;;21.00;19.20;;;;;14.47;53.41;98575.25;6009727;29;96908;-59
2023/04/11 06:43:53;;;;;;;;;23.00;20.60;;;;;14.70;52.83;98573.09;6010722;29;96394;-59
2023/04/11 06:46:57;;;;;;;;;20.00;20.00;;;;;14.92;52.52;98570.31;6010088;29;96217;-59
2023/04/11 06:50:03;;;;;;;;;18.40;17.00;;;;;15.14;51.22;98581.13;5992498;29;97304;-59
2023/04/11 06:53:06;;;;;;;;;21.80;21.60;;;;;15.42;51.52;98580.78;6010589;29;96718;-59
2023/04/11 06:56:10;;;;;;;;;23.00;20.00;;;;;15.64;51.28;98580.69;6001941;29;96382;-60
2023/04/11 06:59:13;;;;;;;;;20.00;18.20;;;;;15.88;51.36;98579.22;5992392;29;96495;-59
2023/04/11 07:02:16;;;;;;;;;20.25;19.00;;;;;16.14;50.84;98573.91;6010309;29;96303;-59
2023/04/11 07:05:21;;;;;;;;;22.00;20.60;;;;;16.41;48.78;98577.31;6010306;29;96303;-59
2023/04/11 07:08:25;;;;;;;;;23.60;22.60;;;;;16.72;48.59;98572.78;6008141;29;96203;-59
2023/04/11 07:11:28;;;;;;;;;21.80;19.80;;;;;16.95;47.37;98568.75;6007387;29;96297;-59
2023/04/11 07:14:32;;;;;;;;;21.00;20.00;;;;;16.97;45.78;98551.03;5990904;29;97363;-59
2023/04/11 07:17:35;;;;;;;;;21.00;19.00;;;;;17.21;47.40;98564.94;5989684;29;99138;-60
2023/04/11 07:20:40;;;;;;;;;22.40;19.00;;;;;17.24;47.31;98569.84;6007201;29;97360;-59
2023/04/11 07:23:43;;;;;;;;;24.60;23.60;;;;;17.36;47.35;98561.38;5982552;29;99078;-59
2023/04/11 07:26:49;;;;;;;;;24.50;22.50;;;;;17.63;46.80;98553.78;5995836;29;96380;-59
2023/04/11 07:29:52;;;;;;;;;21.00;20.00;;;;;17.90;47.05;98551.53;5991200;29;96282;-59
2023/04/11 07:32:55;;;;;;;;;21.40;19.40;;;;;18.17;45.77;98551.16;5991436;29;96408;-61
2023/04/11 07:36:00;;;;;;;;;18.20;18.00;;;;;18.41;45.92;98560.34;6006395;29;96723;-61
2023/04/11 07:39:07;;;;;;;;;21.60;19.60;;;;;18.71;45.18;98553.13;6008276;29;97178;-61
2023/04/11 07:42:11;;;;;;;;;19.00;18.00;;;;;19.07;45.28;98553.66;6008116;29;96532;-60
2023/04/11 07:45:15;;;;;;;;;20.40;18.40;;;;;19.26;43.43;98540.94;5987727;29;96455;-61
2023/04/11 07:48:19;;;;;;;;;20.40;20.00;;;;;19.17;42.80;98539.94;5989072;29;98481;-60
2023/04/11 07:51:23;;;;;;;;;21.75;20.00;;;;;19.23;44.40;98523.22;5984631;29;96671;-61
2023/04/11 07:54:27;;;;;;;;;23.00;21.00;;;;;19.27;43.86;98518.81;6005100;29;96440;-61
2023/04/11 07:57:30;;;;;;;;;23.00;20.00;;;;;19.45;44.26;98520.03;5990166;29;96562;-61
2023/04/11 08:00:34;;;;;;;;;23.40;21.40;;;;;19.79;44.18;98515.28;6007550;29;96879;-61
2023/04/11 08:03:37;;;;;;;;;22.40;20.40;;;;;20.13;43.44;98509.72;6010197;29;96323;-62
2023/04/11 08:06:43;;;;;;;;;18.00;17.80;;;;;20.45;43.32;98505.50;6009778;29;96379;-61
2023/04/11 08:09:46;;;;;;;;;23.00;21.20;;;;;20.66;41.92;98495.88;5993289;29;96708;-62
2023/04/11 08:12:50;;;;;;;;;19.60;17.80;;;;;20.49;41.89;98492.84;6010288;29;96267;-61
2023/04/11 08:15:53;;;;;;;;;17.00;16.00;;;;;20.40;42.81;98480.91;6008872;29;96339;-61
2023/04/11 08:18:57;;;;;;;;;23.00;21.00;;;;;20.43;42.53;98478.41;6007932;29;98604;-61
2023/04/11 08:22:02;;;;;;;;;19.20;19.00;;;;;20.55;43.23;98483.44;6009533;29;96882;-61
2023/04/11 08:25:07;;;;;;;;;18.80;17.80;;;;;20.73;43.20;98477.94;6009976;29;96908;-62
2023/04/11 08:28:11;;;;;;;;;13.50;13.50;;;;;20.91;42.03;98472.75;6008228;29;96666;-61
2023/04/11 08:31:14;;;;;;;;;16.40;15.80;;;;;20.79;41.80;98469.66;6031873;29;96336;-61
2023/04/11 08:34:18;;;;;;;;;16.00;15.20;;;;;20.50;42.95;98456.94;6032347;29;96384;-62
2023/04/11 08:37:22;;;;;;;;;19.00;18.00;;;;;21.02;42.81;98460.50;6031146;29;96138;-62
2023/04/11 08:40:26;;;;;;;;;20.80;19.80;;;;;21.46;42.50;98443.56;6018486;29;96433;-62
2023/04/11 08:43:29;;;;;;;;;17.00;17.00;;;;;21.50;41.76;98433.63;6008868;29;96116;-62
2023/04/11 08:46:33;;;;;;;;;19.00;18.00;;;;;21.93;41.79;98429.50;5993388;29;97000;-61
2023/04/11 08:49:36;;;;;;;;;17.00;15.50;;;;;22.33;40.76;98414.03;6005129;29;96593;-61
2023/04/11 08:52:44;;;;;;;;;16.20;16.20;;;;;22.71;40.82;98411.00;6020741;29;96507;-62
2023/04/11 08:55:48;;;;;;;;;17.00;15.20;;;;;22.52;38.72;98402.91;5999926;29;96802;-62
2023/04/11 08:58:51;;;;;;;;;15.60;15.00;;;;;22.33;39.71;98397.56;6020073;29;96490;-62
2023/04/11 09:02:07;;;;;;;;;15.00;15.00;;;;;22.23;37.33;98391.50;6020116;29;96819;-62
2023/04/11 09:05:24;;;;;;;;;13.60;13.00;;;;;22.08;38.95;98386.34;6000867;29;97765;-62
2023/04/11 09:08:38;;;;;;;;;17.00;16.60;;;;;21.70;39.66;98377.56;6000728;29;96604;-62
2023/04/11 09:11:52;;;;;;;;;14.00;12.40;;;;;22.27;39.85;98360.38;6017007;29;96449;-62
2023/04/11 09:14:55;;;;;;;;;12.80;12.00;;;;;22.63;37.98;98368.53;5996869;29;96802;-62
2023/04/11 09:17:59;;;;;;;;;17.00;15.00;;;;;23.12;38.11;98370.31;6020111;29;96297;-63
2023/04/11 09:21:05;;;;;;;;;8.80;7.80;;;;;23.44;35.01;98373.88;6022399;29;96237;-62
2023/04/11 09:24:18;;;;;;;;;11.00;11.00;;;;;23.11;34.56;98371.47;6013042;29;99110;-62
2023/04/11 09:27:23;;;;;;;;;10.00;9.75;;;;;22.89;34.81;98352.25;6026125;29;96336;-62
2023/04/11 09:30:26;;;;;;;;;13.75;12.00;;;;;22.51;37.61;98345.53;6000599;29;98546;-61
2023/04/11 09:33:30;;;;;;;;;11.20;11.20;;;;;22.59;37.64;98344.75;6013016;29;96434;-62
2023/04/11 09:36:34;;;;;;;;;14.40;13.00;;;;;22.62;37.72;98330.41;6010709;29;96743;-62
2023/04/11 09:39:38;;;;;;;;;15.60;15.00;;;;;22.78;37.43;98331.66;6012592;29;96257;-62
2023/04/11 09:42:43;;;;;;;;;9.00;9.00;;;;;22.83;36.42;98324.09;6012826;29;96814;-62
2023/04/11 09:45:46;;;;;;;;;11.00;10.00;;;;;23.04;35.97;98329.88;5992877;29;98444;-62
2023/04/11 09:48:56;;;;;;;;;10.80;10.00;;;;;23.33;34.07;98321.91;6001798;29;96677;-62
2023/04/11 09:52:01;;;;;;;;;8.20;7.00;;;;;23.46;33.97;98311.91;6012212;29;96346;-61
2023/04/11 09:55:07;;;;;;;;;10.00;9.00;;;;;22.98;33.32;98311.88;5996010;29;98784;-62
2023/04/11 09:58:12;;;;;;;;;9.00;8.00;;;;;22.78;33.93;98304.16;6010987;29;96242;-62
2023/04/11 10:01:18;;;;;;;;;11.00;10.80;;;;;22.93;34.34;98292.78;6011647;29;96331;-61
2023/04/11 10:04:22;;;;;;;;;10.00;9.00;;;;;23.17;33.73;98284.13;6012548;29;96372;-62
2023/04/11 10:07:28;;;;;;;;;14.00;13.00;;;;;23.44;33.62;98272.91;6012631;29;96132;-62
2023/04/11 10:10:34;;;;;;;;;12.20;12.00;;;;;23.82;33.72;98277.84;6012349;29;96331;-62
2023/04/11 10:13:41;;;;;;;;;10.75;10.00;;;;;23.85;32.86;98269.72;5983253;29;98490;-62
2023/04/11 10:17:12;;;;;;;;;11.00;11.00;;;;;24.25;32.17;98273.16;6014022;29;96309;-62
2023/04/11 10:20:47;;;;;;;;;13.40;13.00;;;;;24.25;31.89;98261.31;6004321;29;99095;-62
2023/04/11 10:24:08;;;;;;;;;11.00;10.00;;;;;24.33;31.18;98250.31;5986946;29;96321;-62
2023/04/11 10:27:13;;;;;;;;;9.00;9.00;;;;;24.26;30.04;98249.19;5988080;29;96354;-62
2023/04/11 10:30:16;;;;;;;;;11.00;10.00;;;;;23.75;30.65;98234.25;6010243;29;97010;-62
2023/04/11 10:33:20;;;;;;;;;11.00;11.00;;;;;23.89;31.30;98236.88;5997745;29;96690;-62
2023/04/11 10:36:23;;;;;;;;;11.40;10.40;;;;;24.21;31.82;98228.13;5996766;29;96406;-62
2023/04/11 10:39:59;;;;;;;;;10.25;9.25;;;;;24.42;31.96;98226.31;6013761;29;96417;-61
2023/04/11 10:43:20;;;;;;;;;9.00;8.00;;;;;24.18;31.26;98212.25;6004195;29;96403;-61
2023/04/11 10:46:25;;;;;;;;;10.00;9.00;;;;;24.41;31.32;98210.09;6007404;29;96389;-62
2023/04/11 10:49:34;;;;;;;;;9.00;9.00;;;;;24.43;30.32;98205.91;6012403;29;96774;-62
2023/04/11 10:52:38;;;;;;;;;8.60;7.60;;;;;24.30;31.34;98217.09;5988408;29;97429;-62
2023/04/11 10:55:46;;;;;;;;;8.00;8.00;;;;;23.91;30.34;98218.88;6013049;29;96472;-61
2023/04/11 10:58:52;;;;;;;;;10.00;8.50;;;;;23.53;32.33;98209.66;6012037;29;96384;-61
2023/04/11 11:01:55;;;;;;;;;6.00;6.00;;;;;23.44;32.02;98217.88;6013080;29;96363;-62
2023/04/11 11:05:01;;;;;;;;;9.00;9.00;;;;;23.44;32.53;98217.88;6007938;29;96538;-61
2023/04/11 11:08:05;;;;;;;;;9.00;9.00;;;;;23.41;31.71;98213.00;6006270;29;97117;-61
2023/04/11 11:11:10;;;;;;;;;9.00;8.50;;;;;23.39;32.01;98211.72;6004947;29;96399;-61
2023/04/11 11:14:28;;;;;;;;;9.00;9.00;;;;;23.44;32.48;98217.88;6009947;29;96550;-61
2023/04/11 11:17:32;;;;;;;;;9.40;9.40;;;;;23.68;31.83;98207.25;6011185;29;97125;-61
2023/04/11 11:20:36;;;;;;;;;9.60;9.00;;;;;24.04;31.94;98198.63;6011835;29;97650;-62
2023/04/11 11:23:40;;;;;;;;;7.00;7.00;;;;;24.37;31.01;98195.38;5996769;29;96759;-61
2023/04/11 11:26:45;;;;;;;;;7.00;7.00;;;;;24.54;29.77;98198.88;5991903;29;98616;-62
2023/04/11 11:29:50;;;;;;;;;8.00;8.00;;;;;24.61;27.40;98198.38;6008159;29;96980;-62
2023/04/11 11:32:53;;;;;;;;;6.60;5.60;;;;;24.88;29.66;98194.38;6000565;29;97198;-62
2023/04/11 11:36:00;;;;;;;;;9.00;8.33;;;;;25.21;29.86;98186.25;6009467;29;97456;-62
2023/04/11 11:39:05;;;;;;;;;7.75;7.75;;;;;25.64;29.77;98181.28;6009987;29;96420;-62
2023/04/11 11:42:08;;;;;;;;;7.00;6.00;;;;;25.91;29.12;98171.59;6009850;29;96860;-62
2023/04/11 11:45:17;;;;;;;;;5.40;5.00;;;;;25.88;28.32;98159.28;6013282;29;96787;-62
2023/04/11 11:48:22;;;;;;;;;6.00;6.00;;;;;26.04;29.17;98161.41;5993612;29;96927;-62
2023/04/11 11:51:26;;;;;;;;;8.00;8.00;;;;;26.05;28.28;98169.34;5997401;29;96342;-62
2023/04/11 11:54:30;;;;;;;;;8.00;8.00;;;;;25.95;28.01;98163.47;5992808;29;96209;-62
2023/04/11 11:57:33;;;;;;;;;8.00;7.60;;;;;25.79;29.29;98158.56;6004073;29;96387;-62
2023/04/11 12:00:40;;;;;;;;;7.00;7.00;;;;;25.50;28.84;98146.78;5996520;29;98423;-62
2023/04/11 12:03:44;;;;;;;;;7.00;7.00;;;;;25.23;29.78;98151.66;5996639;29;96249;-62
2023/04/11 12:06:49;;;;;;;;;8.00;8.00;;;;;25.07;29.34;98149.84;6011994;29;96396;-62
2023/04/11 12:09:56;;;;;;;;;7.00;7.00;;;;;24.58;29.79;98135.66;6011399;29;96387;-62
2023/04/11 12:13:00;;;;;;;;;7.20;7.20;;;;;24.60;30.48;98141.63;5994881;29;96766;-62
2023/04/11 12:16:05;;;;;;;;;8.00;8.00;;;;;25.25;30.30;98137.53;6011243;29;96799;-61
2023/04/11 12:19:09;;;;;;;;;9.50;9.50;;;;;25.87;28.86;98132.81;6002926;29;96567;-62
2023/04/11 12:22:12;;;;;;;;;11.00;10.00;;;;;25.98;27.43;98132.38;5989406;29;96888;-62
2023/04/11 12:25:15;;;;;;;;;8.50;8.00;;;;;26.38;28.51;98133.44;5987963;29;97438;-61
2023/04/11 12:28:19;;;;;;;;;7.60;7.00;;;;;26.53;28.20;98118.16;5966140;29;96758;-62
2023/04/11 12:31:25;;;;;;;;;6.80;6.80;;;;;26.34;27.68;98118.66;5994070;29;96360;-62
2023/04/11 12:34:29;;;;;;;;;7.50;6.50;;;;;26.48;27.17;98121.13;6000909;29;96720;-62
2023/04/11 12:37:32;;;;;;;;;6.00;5.40;;;;;26.29;26.53;98118.94;6014534;29;97106;-62
2023/04/11 12:40:36;;;;;;;;;7.00;6.00;;;;;26.21;28.35;98111.50;5973022;29;98409;-62
2023/04/11 12:43:39;;;;;;;;;8.00;7.60;;;;;26.20;27.55;98113.44;5992773;29;96306;-62
2023/04/11 12:46:44;;;;;;;;;6.00;6.00;;;;;25.68;27.00;98107.66;5995821;29;98460;-62
2023/04/11 12:49:47;;;;;;;;;6.40;6.00;;;;;25.45;28.25;98104.44;6010795;29;96263;-62
2023/04/11 12:52:51;;;;;;;;;8.60;8.00;;;;;24.94;27.84;98097.34;6010315;29;97046;-62
2023/04/11 12:55:54;;;;;;;;;8.00;8.00;;;;;24.67;29.53;98102.53;5997959;29;96322;-62
2023/04/11 12:58:57;;;;;;;;;9.00;7.60;;;;;24.39;29.76;98093.91;5994140;29;96413;-61
2023/04/11 13:02:02;;;;;;;;;10.00;9.00;;;;;24.50;30.18;98086.88;6006180;29;97796;-62
2023/04/11 13:05:08;;;;;;;;;8.00;8.00;;;;;24.66;29.79;98078.84;5996435;29;98095;-62
2023/04/11 13:08:11;;;;;;;;;9.00;9.00;;;;;25.09;29.53;98075.84;6012301;29;96338;-61
2023/04/11 13:11:15;;;;;;;;;8.00;7.00;;;;;25.51;29.03;98076.63;5995206;29;96413;-62
2023/04/11 13:14:18;;;;;;;;;10.00;8.00;;;;;25.97;28.38;98076.34;5989265;29;96526;-62
2023/04/11 13:17:23;;;;;;;;;10.60;10.00;;;;;26.37;27.88;98065.50;5998217;29;96391;-61
2023/04/11 13:20:26;;;;;;;;;8.60;8.60;;;;;26.52;27.25;98066.75;6008399;29;96471;-62
2023/04/11 13:23:29;;;;;;;;;6.00;6.00;;;;;26.42;27.49;98065.28;5998094;29;96749;-61
2023/04/11 13:26:33;;;;;;;;;6.60;6.00;;;;;26.23;27.15;98060.31;6014066;29;96358;-61
2023/04/11 13:29:38;;;;;;;;;8.00;8.00;;;;;26.09;27.64;98056.22;6009939;29;97014;-61
2023/04/11 13:32:43;;;;;;;;;8.80;8.80;;;;;26.17;27.64;98056.13;6011717;29;98335;-61
2023/04/11 13:35:46;;;;;;;;;8.00;7.00;;;;;26.42;27.15;98043.16;6010831;29;96272;-61
2023/04/11 13:38:51;;;;;;;;;10.00;9.67;;;;;26.64;26.31;98039.91;5990420;29;97075;-62
2023/04/11 13:41:54;;;;;;;;;9.00;8.00;;;;;26.16;26.27;98039.88;6008013;29;96387;-62
2023/04/11 13:44:57;;;;;;;;;8.40;8.40;;;;;26.00;27.70;98034.22;6008500;29;96254;-62
2023/04/11 13:48:02;;;;;;;;;7.00;6.80;;;;;26.07;27.13;98015.13;6009078;29;96373;-62
2023/04/11 13:51:06;;;;;;;;;8.00;8.00;;;;;26.29;27.53;98014.69;6008040;29;96472;-61
2023/04/11 13:54:10;;;;;;;;;9.80;8.80;;;;;26.56;27.90;98015.16;6006187;29;96459;-62
2023/04/11 13:57:13;;;;;;;;;9.40;8.40;;;;;26.38;26.27;98009.09;5996854;29;96444;-62
2023/04/11 14:00:19;;;;;;;;;8.00;8.00;;;;;26.07;27.07;98003.28;5985401;29;96379;-62
2023/04/11 14:03:24;;;;;;;;;8.60;8.60;;;;;25.61;26.66;98010.00;5984928;29;98569;-62
2023/04/11 14:06:27;;;;;;;;;8.60;8.00;;;;;25.38;28.21;97998.50;6002363;29;96245;-62
2023/04/11 14:09:30;;;;;;;;;7.40;7.00;;;;;25.19;28.27;97998.19;5996489;29;98154;-61
2023/04/11 14:12:34;;;;;;;;;5.50;5.50;;;;;25.04;28.06;97999.63;5981074;29;98471;-62
2023/04/11 14:15:37;;;;;;;;;7.25;7.00;;;;;24.58;27.57;97981.31;5997677;29;96327;-62
2023/04/11 14:18:43;;;;;;;;;8.20;7.20;;;;;24.45;29.04;97988.69;6004669;29;96297;-62